createdAt,value
2023-04-28T00:01:01.385Z,46.70
2023-04-28T00:05:03.660Z,41.75
2023-04-28T00:09:05.821Z,43.95
2023-04-28T00:13:07.856Z,44.40
2023-04-28T00:17:10.710Z,45.45
2023-04-28T00:21:12.781Z,46.00
2023-04-28T00:25:15.097Z,43.25
2023-04-28T00:29:16.715Z,41.90
2023-04-28T00:33:18.782Z,38.75
2023-04-28T00:37:20.787Z,42.25
2023-04-28T00:41:22.830Z,37.85
2023-04-28T00:45:24.937Z,35.90
2023-04-28T00:49:30.148Z,36.13
2023-04-28T00:53:32.230Z,41.05
2023-04-28T00:57:34.358Z,39.88
2023-04-28T01:01:36.948Z,38.10
2023-04-28T01:05:39.246Z,42.05
2023-04-28T01:09:41.340Z,45.50
2023-04-28T01:13:44.657Z,48.15
2023-04-28T01:17:47.762Z,48.10
2023-04-28T01:21:50.886Z,45.70
2023-04-28T01:25:56.531Z,46.92
2023-04-28T01:29:58.601Z,42.83
2023-04-28T01:34:00.997Z,38.17
2023-04-28T01:38:03.164Z,41.00
2023-04-28T01:42:05.856Z,38.17
2023-04-28T01:46:08.445Z,40.67
2023-04-28T01:50:11.442Z,37.63
2023-04-28T01:54:13.612Z,36.05
2023-04-28T01:58:16.197Z,42.55
2023-04-28T02:02:18.262Z,36.17
2023-04-28T02:06:20.503Z,35.72
2023-04-28T02:10:22.478Z,35.53
2023-04-28T02:14:24.313Z,33.22
2023-04-28T02:18:26.703Z,34.03
2023-04-28T02:22:28.750Z,34.38
2023-04-28T02:26:30.757Z,35.22
2023-04-28T02:30:32.730Z,35.47
2023-04-28T02:34:35.360Z,33.78
2023-04-28T02:38:37.589Z,32.97
2023-04-28T02:42:41.129Z,34.20
2023-04-28T02:46:43.451Z,34.10
2023-04-28T02:50:48.235Z,33.85
2023-04-28T02:54:54.361Z,33.85
2023-04-28T02:58:56.832Z,35.75
2023-04-28T03:02:59.357Z,34.25
2023-04-28T03:07:01.918Z,32.30
2023-04-28T03:11:04.109Z,32.80
2023-04-28T03:15:09.173Z,31.83
2023-04-28T03:19:12.929Z,32.55
2023-04-28T03:23:14.970Z,31.95
2023-04-28T03:27:17.286Z,33.13
2023-04-28T03:31:19.407Z,34.83
2023-04-28T03:35:21.640Z,37.03
2023-04-28T03:39:23.943Z,34.40
2023-04-28T03:43:25.952Z,34.13
2023-04-28T03:51:47.879Z,30.95
2023-04-28T03:55:50.986Z,34.13
2023-04-28T03:59:53.822Z,32.17
2023-04-28T04:03:56.359Z,31.45
2023-04-28T04:07:59.043Z,34.10
2023-04-28T04:12:01.353Z,34.50
2023-04-28T04:16:03.772Z,33.67
2023-04-28T04:20:06.872Z,33.58
2023-04-28T04:24:08.912Z,34.70
2023-04-28T04:28:11.008Z,32.92
2023-04-28T04:32:13.134Z,36.92
2023-04-28T04:36:16.815Z,40.10
2023-04-28T04:40:19.022Z,37.15
2023-04-28T04:44:24.679Z,38.40
2023-04-28T04:48:28.517Z,40.28
2023-04-28T04:52:30.639Z,39.88
2023-04-28T04:56:32.868Z,37.40
2023-04-28T05:00:35.941Z,35.78
2023-04-28T05:04:38.070Z,35.85
2023-04-28T05:08:40.471Z,34.95
2023-04-28T05:12:46.111Z,35.15
2023-04-28T05:16:49.754Z,35.67
2023-04-28T05:20:57.718Z,32.08
2023-04-28T05:24:59.810Z,30.23
2023-04-28T05:29:02.097Z,31.02
2023-04-28T05:33:04.247Z,30.45
2023-04-28T05:37:06.678Z,29.45
2023-04-28T05:41:11.295Z,28.05
2023-04-28T05:45:15.594Z,27.35
2023-04-28T05:49:17.733Z,28.25
2023-04-28T05:53:20.089Z,25.38
2023-04-28T05:57:22.997Z,23.60
2023-04-28T06:01:25.004Z,27.85
2023-04-28T06:05:27.696Z,22.08
2023-04-28T06:09:31.174Z,20.60
2023-04-28T06:13:34.881Z,18.02
2023-04-28T06:17:39.684Z,18.35
2023-04-28T06:21:41.834Z,18.42
2023-04-28T06:25:44.144Z,17.70
2023-04-28T06:29:46.361Z,17.50
2023-04-28T06:33:48.362Z,17.35
2023-04-28T06:37:50.390Z,17.67
2023-04-28T06:41:52.505Z,18.42
2023-04-28T06:45:55.198Z,17.70
2023-04-28T06:50:01.815Z,16.52
2023-04-28T06:54:08.596Z,15.45
2023-04-28T06:58:11.388Z,15.98
2023-04-28T07:02:13.496Z,13.85
2023-04-28T07:06:16.641Z,13.10
2023-04-28T07:10:19.180Z,12.25
2023-04-28T07:14:21.383Z,9.45
2023-04-28T07:18:23.654Z,11.00
2023-04-28T07:22:25.791Z,11.25
2023-04-28T07:26:27.994Z,11.80
2023-04-28T07:30:30.054Z,8.50
2023-04-28T07:34:32.057Z,8.52
2023-04-28T07:38:35.487Z,8.95
2023-04-28T07:42:37.518Z,7.68
2023-04-28T07:46:39.587Z,8.27
2023-04-28T07:50:42.065Z,5.78
2023-04-28T07:54:44.083Z,7.03
2023-04-28T07:58:46.201Z,6.53
2023-04-28T08:02:48.444Z,6.00
2023-04-28T08:06:50.852Z,6.55
2023-04-28T08:10:52.972Z,5.07
2023-04-28T08:14:55.211Z,5.07
2023-04-28T08:18:57.954Z,4.00
2023-04-28T08:23:00.189Z,3.25
2023-04-28T08:27:06.150Z,2.83
2023-04-28T08:31:08.546Z,3.05
2023-04-28T08:35:11.655Z,2.53
2023-04-28T08:39:13.829Z,2.60
2023-04-28T08:43:16.316Z,2.13
2023-04-28T08:47:22.152Z,2.28
2023-04-28T08:51:52.867Z,2.63
2023-04-28T08:55:57.460Z,2.78
2023-04-28T09:00:00.597Z,2.92
2023-04-28T09:04:04.119Z,3.30
2023-04-28T09:08:06.485Z,3.25
2023-04-28T09:12:09.162Z,3.05
2023-04-28T09:16:11.790Z,3.20
2023-04-28T09:20:22.799Z,3.15
2023-04-28T09:24:41.724Z,3.55
2023-04-28T09:28:43.822Z,3.58
2023-04-28T09:32:46.038Z,3.70
2023-04-28T09:36:48.673Z,3.50
2023-04-28T09:41:02.984Z,3.45
2023-04-28T09:45:07.387Z,3.65
2023-04-28T09:49:09.442Z,4.22
2023-04-28T09:53:13.053Z,3.30
2023-04-28T09:57:16.797Z,3.33
2023-04-28T10:01:19.278Z,3.72
2023-04-28T10:05:23.781Z,3.55
2023-04-28T10:09:26.738Z,3.58
2023-04-28T10:13:29.684Z,4.05
2023-04-28T10:17:33.057Z,3.28
2023-04-28T10:21:45.865Z,3.65
2023-04-28T10:25:52.990Z,3.90
2023-04-28T10:29:54.985Z,4.35
2023-04-28T10:34:23.025Z,3.42
2023-04-28T10:38:25.196Z,3.17
2023-04-28T10:43:04.679Z,3.47
2023-04-28T10:47:09.564Z,3.40
2023-04-28T10:51:13.179Z,3.25
2023-04-28T10:55:36.529Z,3.30
2023-04-28T10:59:39.071Z,3.67
2023-04-28T11:04:08.318Z,3.33
2023-04-28T11:12:28.314Z,2.65
2023-04-28T11:16:31.718Z,4.15
2023-04-28T11:20:34.535Z,2.38
2023-04-28T11:24:37.226Z,3.03
2023-04-28T11:28:54.143Z,2.70
2023-04-28T11:32:56.760Z,3.00
2023-04-28T11:36:59.098Z,2.85
2023-04-28T11:41:01.197Z,3.03
2023-04-28T11:45:04.546Z,2.90
2023-04-28T11:49:06.928Z,2.72
2023-04-28T11:53:08.949Z,3.25
2023-04-28T11:57:21.560Z,3.42
2023-04-28T12:01:23.997Z,3.05
2023-04-28T12:05:26.117Z,3.30
2023-04-28T12:09:28.432Z,3.70
2023-04-28T12:13:30.708Z,3.40
2023-04-28T12:17:37.002Z,2.90
2023-04-28T12:21:40.139Z,2.70
2023-04-28T12:25:47.174Z,3.28
2023-04-28T12:29:49.346Z,3.35
2023-04-28T12:33:51.362Z,3.22
2023-04-28T12:37:55.459Z,3.83
2023-04-28T12:41:59.330Z,3.30
2023-04-28T12:46:01.418Z,3.33
2023-04-28T12:50:03.748Z,3.28
2023-04-28T12:54:06.570Z,2.85
2023-04-28T12:58:08.663Z,3.25
2023-04-28T13:02:11.123Z,3.25
2023-04-28T13:06:13.293Z,4.22
2023-04-28T13:10:15.042Z,4.30
2023-04-28T13:14:17.063Z,4.25
2023-04-28T13:18:19.142Z,3.55
2023-04-28T13:22:21.803Z,4.20
2023-04-28T13:26:26.877Z,3.90
2023-04-28T13:30:28.989Z,4.10
2023-04-28T13:34:31.601Z,4.30
2023-04-28T13:38:33.684Z,4.38
2023-04-28T13:42:35.762Z,4.07
2023-04-28T13:46:37.875Z,4.90
2023-04-28T13:50:40.072Z,4.75
2023-04-28T13:54:42.066Z,13.63
2023-04-28T13:58:44.170Z,17.33
2023-04-28T14:02:49.520Z,14.25
2023-04-28T14:06:53.014Z,28.85
2023-04-28T14:10:55.202Z,10.13
2023-04-28T14:14:57.705Z,5.03
2023-04-28T14:18:59.834Z,9.35
2023-04-28T14:23:02.325Z,5.45
2023-04-28T14:27:04.663Z,4.53
2023-04-28T14:31:08.993Z,4.63
2023-04-28T14:35:12.854Z,4.50
2023-04-28T14:39:14.917Z,5.53
2023-04-28T14:43:16.951Z,4.50
2023-04-28T14:47:18.954Z,4.47
2023-04-28T14:51:21.752Z,4.80
2023-04-28T14:55:23.840Z,5.07
2023-04-28T14:59:27.353Z,5.13
2023-04-28T15:03:29.960Z,4.50
2023-04-28T15:07:32.607Z,5.30
2023-04-28T15:11:34.630Z,6.00
2023-04-28T15:15:37.021Z,5.68
2023-04-28T15:19:39.094Z,4.95
2023-04-28T15:23:41.322Z,4.85
2023-04-28T15:27:43.601Z,6.78
2023-04-28T15:31:45.791Z,6.13
2023-04-28T15:35:47.790Z,5.20
2023-04-28T15:39:49.817Z,5.70
2023-04-28T15:43:52.199Z,5.30
2023-04-28T15:47:55.082Z,7.38
2023-04-28T15:51:57.315Z,35.00
2023-04-28T15:55:59.529Z,7.78
2023-04-28T16:00:01.631Z,5.05
2023-04-28T16:04:09.842Z,6.47
2023-04-28T16:08:12.460Z,5.30
2023-04-28T16:12:14.490Z,5.63
2023-04-28T16:16:16.894Z,4.90
2023-04-28T16:20:19.153Z,4.97
2023-04-28T16:24:22.459Z,4.95
2023-04-28T16:28:24.880Z,4.10
2023-04-28T16:32:27.063Z,4.07
2023-04-28T16:36:34.794Z,4.90
2023-04-28T16:40:36.975Z,5.03
2023-04-28T16:44:39.052Z,5.07
2023-04-28T16:48:41.270Z,4.35
2023-04-28T16:52:43.675Z,4.07
2023-04-28T16:56:45.835Z,3.97
2023-04-28T17:00:47.456Z,3.83
2023-04-28T17:04:50.815Z,4.13
2023-04-28T17:08:52.848Z,4.82
2023-04-28T17:12:54.878Z,4.07
2023-04-28T17:16:57.126Z,3.70
2023-04-28T17:20:59.152Z,5.05
2023-04-28T17:25:01.464Z,4.72
2023-04-28T17:29:03.598Z,4.20
2023-04-28T17:33:05.684Z,4.35
2023-04-28T17:37:07.795Z,4.88
2023-04-28T17:41:10.196Z,5.53
2023-04-28T17:45:12.004Z,5.78
2023-04-28T17:49:14.074Z,5.25
2023-04-28T17:53:16.800Z,4.95
2023-04-28T17:57:18.901Z,5.07
2023-04-28T18:01:21.008Z,6.30
2023-04-28T18:05:24.334Z,7.53
2023-04-28T18:09:27.151Z,6.70
2023-04-28T18:13:29.457Z,6.63
2023-04-28T18:17:33.266Z,6.72
2023-04-28T18:21:35.388Z,8.65
2023-04-28T18:25:37.748Z,7.60
2023-04-28T18:29:40.247Z,8.93
2023-04-28T18:33:42.416Z,9.25
2023-04-28T18:37:46.945Z,8.80
2023-04-28T18:41:49.098Z,9.43
2023-04-28T18:45:51.473Z,11.13
2023-04-28T18:49:53.642Z,9.85
2023-04-28T18:53:55.899Z,10.75
2023-04-28T18:57:57.994Z,10.43
2023-04-28T19:02:02.247Z,10.73
2023-04-28T19:06:04.322Z,11.57
2023-04-28T19:10:07.901Z,13.02
2023-04-28T19:14:10.202Z,12.07
2023-04-28T19:18:12.547Z,13.80
2023-04-28T19:22:35.088Z,12.45
2023-04-28T19:26:37.238Z,10.65
2023-04-28T19:30:39.254Z,10.02
2023-04-28T19:34:41.286Z,12.20
2023-04-28T19:38:43.397Z,12.98
2023-04-28T19:42:45.459Z,12.85
2023-04-28T19:46:47.472Z,13.90
2023-04-28T19:50:49.460Z,12.88
2023-04-28T19:54:52.247Z,13.13
2023-04-28T19:58:54.435Z,13.40
2023-04-28T20:02:56.671Z,17.70
2023-04-28T20:06:58.409Z,15.88
2023-04-28T20:11:00.506Z,15.18
2023-04-28T20:15:02.505Z,16.05
2023-04-28T20:19:04.880Z,14.77
2023-04-28T20:23:06.884Z,15.52
2023-04-28T20:27:09.690Z,15.38
2023-04-28T20:31:11.764Z,15.65
2023-04-28T20:35:13.883Z,14.55
2023-04-28T20:39:15.872Z,15.25
2023-04-28T20:43:18.621Z,15.40
2023-04-28T20:47:20.675Z,14.45
2023-04-28T20:51:22.731Z,14.63
2023-04-28T20:55:24.741Z,15.75
2023-04-28T20:59:26.806Z,15.80
2023-04-28T21:03:30.613Z,16.23
2023-04-28T21:07:32.689Z,16.77
2023-04-28T21:11:34.888Z,19.17
2023-04-28T21:15:37.950Z,19.27
2023-04-28T21:19:40.054Z,20.13
2023-04-28T21:23:43.088Z,23.25
2023-04-28T21:27:45.094Z,19.55
2023-04-28T21:31:47.477Z,15.57
2023-04-28T21:35:49.627Z,15.88
2023-04-28T21:39:52.017Z,15.45
2023-04-28T21:43:54.993Z,16.02
2023-04-28T21:47:58.293Z,16.77
2023-04-28T21:52:00.288Z,17.02
2023-04-28T21:56:04.362Z,16.65
2023-04-28T22:00:10.546Z,16.83
2023-04-28T22:04:15.362Z,17.50
2023-04-28T22:08:17.453Z,16.17
2023-04-28T22:12:19.645Z,17.65
2023-04-28T22:16:22.179Z,17.05
2023-04-28T22:20:24.498Z,17.70
2023-04-28T22:24:27.864Z,18.45
2023-04-28T22:28:30.155Z,16.52
2023-04-28T22:32:32.265Z,18.13
2023-04-28T22:36:34.338Z,18.23
2023-04-28T22:40:36.338Z,18.38
2023-04-28T22:44:38.385Z,17.77
2023-04-28T22:48:40.416Z,18.52
2023-04-28T22:52:42.537Z,18.35
2023-04-28T22:56:44.555Z,18.08
2023-04-28T23:00:47.023Z,18.58
2023-04-28T23:04:49.274Z,17.95
2023-04-28T23:08:51.660Z,17.73
2023-04-28T23:12:53.846Z,17.85
2023-04-28T23:16:55.965Z,20.85
2023-04-28T23:20:58.431Z,18.83
2023-04-28T23:25:00.658Z,18.77
2023-04-28T23:29:02.763Z,20.02
2023-04-28T23:33:05.206Z,18.00
2023-04-28T23:37:07.545Z,19.02
2023-04-28T23:41:09.617Z,18.65
2023-04-28T23:45:11.965Z,18.08
2023-04-28T23:49:14.031Z,18.60
2023-04-28T23:53:16.016Z,18.38
2023-04-28T23:57:17.794Z,18.60
